sensor_id;sensor_type;location;lat;lon;timestamp;P1;durP1;ratioP1;P2;durP2;ratioP2
25125;SDS011;13106;50.808;5.670;2022-11-20T00:00:55;36.10;;;22.20;;
25125;SDS011;13106;50.808;5.670;2022-11-20T00:03:21;37.10;;;22.77;;
25125;SDS011;13106;50.808;5.670;2022-11-20T00:05:47;36.50;;;22.40;;
25125;SDS011;13106;50.808;5.670;2022-11-20T00:08:13;35.03;;;21.35;;
25125;SDS011;13106;50.808;5.670;2022-11-20T00:10:40;36.22;;;22.60;;
25125;SDS011;13106;50.808;5.670;2022-11-20T00:13:06;33.35;;;21.48;;
25125;SDS011;13106;50.808;5.670;2022-11-20T00:15:33;35.65;;;21.80;;
25125;SDS011;13106;50.808;5.670;2022-11-20T00:17:59;37.78;;;22.92;;
25125;SDS011;13106;50.808;5.670;2022-11-20T00:20:25;37.90;;;23.40;;
25125;SDS011;13106;50.808;5.670;2022-11-20T00:22:51;40.88;;;22.20;;
25125;SDS011;13106;50.808;5.670;2022-11-20T00:25:18;37.03;;;22.20;;
25125;SDS011;13106;50.808;5.670;2022-11-20T00:27:43;37.75;;;22.73;;
25125;SDS011;13106;50.808;5.670;2022-11-20T00:30:10;42.50;;;22.75;;
25125;SDS011;13106;50.808;5.670;2022-11-20T00:32:36;35.35;;;23.08;;
25125;SDS011;13106;50.808;5.670;2022-11-20T00:35:02;37.00;;;22.83;;
25125;SDS011;13106;50.808;5.670;2022-11-20T00:37:28;39.72;;;24.25;;
25125;SDS011;13106;50.808;5.670;2022-11-20T00:39:55;38.47;;;22.60;;
25125;SDS011;13106;50.808;5.670;2022-11-20T00:42:21;35.53;;;22.52;;
25125;SDS011;13106;50.808;5.670;2022-11-20T00:44:47;38.25;;;23.60;;
25125;SDS011;13106;50.808;5.670;2022-11-20T00:47:13;33.78;;;21.90;;
25125;SDS011;13106;50.808;5.670;2022-11-20T00:49:39;36.05;;;23.80;;
25125;SDS011;13106;50.808;5.670;2022-11-20T00:52:05;38.58;;;26.73;;
25125;SDS011;13106;50.808;5.670;2022-11-20T00:54:31;39.30;;;23.90;;
25125;SDS011;13106;50.808;5.670;2022-11-20T00:56:57;33.10;;;21.52;;
25125;SDS011;13106;50.808;5.670;2022-11-20T00:59:23;41.15;;;23.08;;
25125;SDS011;13106;50.808;5.670;2022-11-20T01:01:49;35.97;;;21.40;;
25125;SDS011;13106;50.808;5.670;2022-11-20T01:04:15;40.42;;;23.42;;
25125;SDS011;13106;50.808;5.670;2022-11-20T01:06:41;39.88;;;23.83;;
25125;SDS011;13106;50.808;5.670;2022-11-20T01:09:09;36.38;;;21.27;;
25125;SDS011;13106;50.808;5.670;2022-11-20T01:11:37;38.63;;;22.65;;
25125;SDS011;13106;50.808;5.670;2022-11-20T01:14:04;35.47;;;21.98;;
25125;SDS011;13106;50.808;5.670;2022-11-20T01:16:32;38.95;;;22.98;;
25125;SDS011;13106;50.808;5.670;2022-11-20T01:18:59;31.27;;;21.25;;
25125;SDS011;13106;50.808;5.670;2022-11-20T01:21:26;35.70;;;22.55;;
25125;SDS011;13106;50.808;5.670;2022-11-20T01:23:52;37.00;;;23.73;;
25125;SDS011;13106;50.808;5.670;2022-11-20T01:26:20;38.10;;;23.40;;
25125;SDS011;13106;50.808;5.670;2022-11-20T01:28:46;40.90;;;26.02;;
25125;SDS011;13106;50.808;5.670;2022-11-20T01:31:14;39.05;;;24.42;;
25125;SDS011;13106;50.808;5.670;2022-11-20T01:33:41;36.65;;;25.02;;
25125;SDS011;13106;50.808;5.670;2022-11-20T01:36:07;39.53;;;29.42;;
25125;SDS011;13106;50.808;5.670;2022-11-20T01:38:34;34.53;;;22.05;;
25125;SDS011;13106;50.808;5.670;2022-11-20T01:41:00;34.95;;;22.33;;
25125;SDS011;13106;50.808;5.670;2022-11-20T01:43:26;32.78;;;20.90;;
25125;SDS011;13106;50.808;5.670;2022-11-20T01:51:04;33.58;;;21.40;;
25125;SDS011;13106;50.808;5.670;2022-11-20T01:53:32;33.45;;;21.55;;
25125;SDS011;13106;50.808;5.670;2022-11-20T01:55:59;34.55;;;21.10;;
25125;SDS011;13106;50.808;5.670;2022-11-20T01:58:28;37.15;;;22.75;;
25125;SDS011;13106;50.808;5.670;2022-11-20T02:00:55;33.88;;;21.42;;
25125;SDS011;13106;50.808;5.670;2022-11-20T02:03:21;36.92;;;22.13;;
25125;SDS011;13106;50.808;5.670;2022-11-20T02:08:32;36.03;;;22.70;;
25125;SDS011;13106;50.808;5.670;2022-11-20T02:10:58;36.65;;;23.02;;
25125;SDS011;13106;50.808;5.670;2022-11-20T02:13:24;36.00;;;22.83;;
25125;SDS011;13106;50.808;5.670;2022-11-20T02:18:40;37.42;;;22.67;;
25125;SDS011;13106;50.808;5.670;2022-11-20T02:21:09;41.03;;;26.10;;
25125;SDS011;13106;50.808;5.670;2022-11-20T02:26:11;40.83;;;23.35;;
25125;SDS011;13106;50.808;5.670;2022-11-20T02:28:38;37.58;;;23.42;;
25125;SDS011;13106;50.808;5.670;2022-11-20T02:31:05;38.17;;;22.52;;
25125;SDS011;13106;50.808;5.670;2022-11-20T02:33:31;35.70;;;21.92;;
25125;SDS011;13106;50.808;5.670;2022-11-20T02:35:57;36.58;;;22.20;;
25125;SDS011;13106;50.808;5.670;2022-11-20T02:38:23;35.60;;;23.10;;
25125;SDS011;13106;50.808;5.670;2022-11-20T02:40:49;35.50;;;23.10;;
25125;SDS011;13106;50.808;5.670;2022-11-20T02:43:15;37.67;;;23.70;;
25125;SDS011;13106;50.808;5.670;2022-11-20T02:45:41;33.33;;;22.25;;
25125;SDS011;13106;50.808;5.670;2022-11-20T02:48:07;37.13;;;22.63;;
25125;SDS011;13106;50.808;5.670;2022-11-20T02:50:36;34.35;;;21.85;;
25125;SDS011;13106;50.808;5.670;2022-11-20T02:53:02;37.40;;;24.08;;
25125;SDS011;13106;50.808;5.670;2022-11-20T02:55:28;37.70;;;23.83;;
25125;SDS011;13106;50.808;5.670;2022-11-20T02:57:54;41.05;;;23.70;;
25125;SDS011;13106;50.808;5.670;2022-11-20T03:00:20;37.60;;;23.48;;
25125;SDS011;13106;50.808;5.670;2022-11-20T03:02:46;39.03;;;23.17;;
25125;SDS011;13106;50.808;5.670;2022-11-20T03:05:12;42.03;;;23.92;;
25125;SDS011;13106;50.808;5.670;2022-11-20T03:07:38;40.15;;;24.10;;
25125;SDS011;13106;50.808;5.670;2022-11-20T03:10:05;40.40;;;24.15;;
25125;SDS011;13106;50.808;5.670;2022-11-20T03:12:31;38.65;;;24.25;;
25125;SDS011;13106;50.808;5.670;2022-11-20T03:14:57;42.15;;;25.08;;
25125;SDS011;13106;50.808;5.670;2022-11-20T03:17:23;40.95;;;23.92;;
25125;SDS011;13106;50.808;5.670;2022-11-20T03:19:49;40.13;;;25.30;;
25125;SDS011;13106;50.808;5.670;2022-11-20T03:22:15;38.00;;;24.25;;
25125;SDS011;13106;50.808;5.670;2022-11-20T03:24:41;40.75;;;27.77;;
25125;SDS011;13106;50.808;5.670;2022-11-20T03:27:07;44.92;;;32.50;;
25125;SDS011;13106;50.808;5.670;2022-11-20T03:29:34;42.05;;;32.92;;
25125;SDS011;13106;50.808;5.670;2022-11-20T03:32:00;47.42;;;28.45;;
25125;SDS011;13106;50.808;5.670;2022-11-20T03:34:26;41.67;;;25.92;;
25125;SDS011;13106;50.808;5.670;2022-11-20T03:36:52;44.30;;;30.20;;
25125;SDS011;13106;50.808;5.670;2022-11-20T03:39:18;45.58;;;31.02;;
25125;SDS011;13106;50.808;5.670;2022-11-20T03:41:44;47.97;;;31.38;;
25125;SDS011;13106;50.808;5.670;2022-11-20T03:44:10;49.05;;;34.53;;
25125;SDS011;13106;50.808;5.670;2022-11-20T03:46:37;45.13;;;30.45;;
25125;SDS011;13106;50.808;5.670;2022-11-20T03:49:03;42.70;;;26.58;;
25125;SDS011;13106;50.808;5.670;2022-11-20T03:51:34;43.72;;;31.67;;
25125;SDS011;13106;50.808;5.670;2022-11-20T03:54:01;44.97;;;27.17;;
25125;SDS011;13106;50.808;5.670;2022-11-20T03:56:28;49.67;;;31.25;;
25125;SDS011;13106;50.808;5.670;2022-11-20T03:58:54;47.70;;;31.05;;
25125;SDS011;13106;50.808;5.670;2022-11-20T04:01:21;51.85;;;31.63;;
25125;SDS011;13106;50.808;5.670;2022-11-20T04:03:48;49.20;;;38.30;;
25125;SDS011;13106;50.808;5.670;2022-11-20T04:06:16;51.80;;;38.55;;
25125;SDS011;13106;50.808;5.670;2022-11-20T04:08:42;55.50;;;34.10;;
25125;SDS011;13106;50.808;5.670;2022-11-20T04:11:13;53.67;;;35.53;;
25125;SDS011;13106;50.808;5.670;2022-11-20T04:13:39;57.47;;;39.22;;
25125;SDS011;13106;50.808;5.670;2022-11-20T04:16:06;56.85;;;40.35;;
25125;SDS011;13106;50.808;5.670;2022-11-20T04:18:32;61.42;;;42.08;;
25125;SDS011;13106;50.808;5.670;2022-11-20T04:20:59;55.45;;;39.63;;
25125;SDS011;13106;50.808;5.670;2022-11-20T04:23:25;58.53;;;40.83;;
25125;SDS011;13106;50.808;5.670;2022-11-20T04:25:51;54.35;;;37.05;;
25125;SDS011;13106;50.808;5.670;2022-11-20T04:28:17;52.72;;;31.90;;
25125;SDS011;13106;50.808;5.670;2022-11-20T04:30:43;56.25;;;29.48;;
25125;SDS011;13106;50.808;5.670;2022-11-20T04:33:09;51.95;;;30.98;;
25125;SDS011;13106;50.808;5.670;2022-11-20T04:35:35;53.50;;;28.83;;
25125;SDS011;13106;50.808;5.670;2022-11-20T04:38:01;54.38;;;28.38;;
25125;SDS011;13106;50.808;5.670;2022-11-20T04:40:28;55.00;;;29.63;;
25125;SDS011;13106;50.808;5.670;2022-11-20T04:42:54;64.50;;;37.30;;
25125;SDS011;13106;50.808;5.670;2022-11-20T04:45:20;57.90;;;39.08;;
25125;SDS011;13106;50.808;5.670;2022-11-20T04:47:46;60.38;;;38.58;;
25125;SDS011;13106;50.808;5.670;2022-11-20T04:50:12;64.80;;;41.40;;
25125;SDS011;13106;50.808;5.670;2022-11-20T04:52:38;63.70;;;41.58;;
25125;SDS011;13106;50.808;5.670;2022-11-20T04:55:05;72.30;;;52.28;;
25125;SDS011;13106;50.808;5.670;2022-11-20T04:57:31;67.03;;;39.60;;
25125;SDS011;13106;50.808;5.670;2022-11-20T04:59:57;70.70;;;42.75;;
25125;SDS011;13106;50.808;5.670;2022-11-20T05:02:23;72.97;;;41.75;;
25125;SDS011;13106;50.808;5.670;2022-11-20T05:04:49;70.18;;;43.60;;
25125;SDS011;13106;50.808;5.670;2022-11-20T05:07:15;72.82;;;49.58;;
25125;SDS011;13106;50.808;5.670;2022-11-20T05:09:41;63.83;;;48.65;;
25125;SDS011;13106;50.808;5.670;2022-11-20T05:12:07;75.10;;;47.42;;
25125;SDS011;13106;50.808;5.670;2022-11-20T05:14:34;59.10;;;33.72;;
25125;SDS011;13106;50.808;5.670;2022-11-20T05:17:00;63.58;;;33.10;;
25125;SDS011;13106;50.808;5.670;2022-11-20T05:19:26;59.63;;;34.83;;
25125;SDS011;13106;50.808;5.670;2022-11-20T05:21:52;62.97;;;35.38;;
25125;SDS011;13106;50.808;5.670;2022-11-20T05:24:18;62.05;;;35.95;;
25125;SDS011;13106;50.808;5.670;2022-11-20T05:26:44;64.53;;;39.80;;
25125;SDS011;13106;50.808;5.670;2022-11-20T05:29:10;58.83;;;36.50;;
25125;SDS011;13106;50.808;5.670;2022-11-20T05:31:38;62.47;;;34.63;;
25125;SDS011;13106;50.808;5.670;2022-11-20T05:34:04;61.13;;;33.17;;
25125;SDS011;13106;50.808;5.670;2022-11-20T05:36:30;64.07;;;37.28;;
25125;SDS011;13106;50.808;5.670;2022-11-20T05:38:56;59.60;;;36.47;;
25125;SDS011;13106;50.808;5.670;2022-11-20T05:41:22;63.97;;;44.88;;
25125;SDS011;13106;50.808;5.670;2022-11-20T05:43:49;55.42;;;28.60;;
25125;SDS011;13106;50.808;5.670;2022-11-20T05:46:16;50.88;;;29.55;;
25125;SDS011;13106;50.808;5.670;2022-11-20T05:48:43;54.13;;;28.38;;
25125;SDS011;13106;50.808;5.670;2022-11-20T05:51:10;55.90;;;29.27;;
25125;SDS011;13106;50.808;5.670;2022-11-20T05:53:36;53.38;;;26.95;;
25125;SDS011;13106;50.808;5.670;2022-11-20T05:56:03;53.33;;;26.63;;
25125;SDS011;13106;50.808;5.670;2022-11-20T05:58:30;51.22;;;29.65;;
25125;SDS011;13106;50.808;5.670;2022-11-20T06:01:16;55.00;;;33.38;;
25125;SDS011;13106;50.808;5.670;2022-11-20T06:03:42;54.22;;;31.45;;
25125;SDS011;13106;50.808;5.670;2022-11-20T06:06:11;57.38;;;28.38;;
25125;SDS011;13106;50.808;5.670;2022-11-20T06:08:37;56.40;;;29.50;;
25125;SDS011;13106;50.808;5.670;2022-11-20T06:11:04;56.15;;;28.35;;
25125;SDS011;13106;50.808;5.670;2022-11-20T06:13:30;58.85;;;29.10;;
25125;SDS011;13106;50.808;5.670;2022-11-20T06:15:56;62.45;;;30.65;;
25125;SDS011;13106;50.808;5.670;2022-11-20T06:18:22;52.55;;;26.83;;
25125;SDS011;13106;50.808;5.670;2022-11-20T06:20:48;57.78;;;27.38;;
25125;SDS011;13106;50.808;5.670;2022-11-20T06:23:14;57.90;;;28.73;;
25125;SDS011;13106;50.808;5.670;2022-11-20T06:25:40;49.10;;;25.17;;
25125;SDS011;13106;50.808;5.670;2022-11-20T06:28:06;48.35;;;27.23;;
25125;SDS011;13106;50.808;5.670;2022-11-20T06:30:32;55.35;;;26.60;;
25125;SDS011;13106;50.808;5.670;2022-11-20T06:32:58;53.83;;;27.98;;
25125;SDS011;13106;50.808;5.670;2022-11-20T06:35:24;52.42;;;28.08;;
25125;SDS011;13106;50.808;5.670;2022-11-20T06:37:50;56.53;;;31.48;;
25125;SDS011;13106;50.808;5.670;2022-11-20T06:40:16;49.85;;;29.95;;
25125;SDS011;13106;50.808;5.670;2022-11-20T06:42:42;52.63;;;31.95;;
25125;SDS011;13106;50.808;5.670;2022-11-20T06:45:09;61.35;;;33.28;;
25125;SDS011;13106;50.808;5.670;2022-11-20T06:47:35;58.38;;;31.17;;
25125;SDS011;13106;50.808;5.670;2022-11-20T06:50:01;56.40;;;31.88;;
25125;SDS011;13106;50.808;5.670;2022-11-20T06:52:27;54.40;;;26.30;;
25125;SDS011;13106;50.808;5.670;2022-11-20T06:54:53;57.25;;;30.15;;
25125;SDS011;13106;50.808;5.670;2022-11-20T06:57:19;55.03;;;29.38;;
25125;SDS011;13106;50.808;5.670;2022-11-20T06:59:45;55.55;;;26.98;;
25125;SDS011;13106;50.808;5.670;2022-11-20T07:02:11;61.13;;;28.58;;
25125;SDS011;13106;50.808;5.670;2022-11-20T07:04:38;52.85;;;26.35;;
25125;SDS011;13106;50.808;5.670;2022-11-20T07:07:04;54.95;;;27.52;;
25125;SDS011;13106;50.808;5.670;2022-11-20T07:09:31;57.92;;;28.98;;
25125;SDS011;13106;50.808;5.670;2022-11-20T07:11:58;53.03;;;27.80;;
25125;SDS011;13106;50.808;5.670;2022-11-20T07:14:25;54.63;;;27.58;;
25125;SDS011;13106;50.808;5.670;2022-11-20T07:16:51;49.85;;;26.90;;
25125;SDS011;13106;50.808;5.670;2022-11-20T07:19:17;55.33;;;27.90;;
25125;SDS011;13106;50.808;5.670;2022-11-20T07:21:43;51.60;;;26.73;;
25125;SDS011;13106;50.808;5.670;2022-11-20T07:24:09;51.08;;;26.52;;
25125;SDS011;13106;50.808;5.670;2022-11-20T07:26:35;56.10;;;27.85;;
25125;SDS011;13106;50.808;5.670;2022-11-20T07:29:01;50.78;;;26.13;;
25125;SDS011;13106;50.808;5.670;2022-11-20T07:31:27;46.53;;;24.58;;
25125;SDS011;13106;50.808;5.670;2022-11-20T07:33:53;54.13;;;26.90;;
25125;SDS011;13106;50.808;5.670;2022-11-20T07:36:19;56.10;;;26.50;;
25125;SDS011;13106;50.808;5.670;2022-11-20T07:38:45;46.35;;;24.30;;
25125;SDS011;13106;50.808;5.670;2022-11-20T07:41:11;49.80;;;25.95;;
25125;SDS011;13106;50.808;5.670;2022-11-20T07:43:37;48.58;;;27.50;;
25125;SDS011;13106;50.808;5.670;2022-11-20T07:46:03;48.00;;;26.45;;
25125;SDS011;13106;50.808;5.670;2022-11-20T07:48:29;45.47;;;23.80;;
25125;SDS011;13106;50.808;5.670;2022-11-20T07:50:55;49.15;;;24.65;;
25125;SDS011;13106;50.808;5.670;2022-11-20T07:53:22;50.13;;;26.10;;
25125;SDS011;13106;50.808;5.670;2022-11-20T07:55:48;47.13;;;24.48;;
25125;SDS011;13106;50.808;5.670;2022-11-20T07:58:17;51.72;;;24.80;;
25125;SDS011;13106;50.808;5.670;2022-11-20T08:00:44;48.72;;;25.92;;
25125;SDS011;13106;50.808;5.670;2022-11-20T08:03:10;50.28;;;24.67;;
25125;SDS011;13106;50.808;5.670;2022-11-20T08:05:36;48.50;;;26.17;;
25125;SDS011;13106;50.808;5.670;2022-11-20T08:08:02;62.92;;;29.95;;
25125;SDS011;13106;50.808;5.670;2022-11-20T08:10:28;50.88;;;27.65;;
25125;SDS011;13106;50.808;5.670;2022-11-20T08:12:54;53.03;;;32.30;;
25125;SDS011;13106;50.808;5.670;2022-11-20T08:15:39;48.38;;;27.92;;
25125;SDS011;13106;50.808;5.670;2022-11-20T08:18:06;52.47;;;31.15;;
25125;SDS011;13106;50.808;5.670;2022-11-20T08:20:33;56.40;;;28.20;;
25125;SDS011;13106;50.808;5.670;2022-11-20T08:23:00;55.75;;;31.25;;
25125;SDS011;13106;50.808;5.670;2022-11-20T08:25:26;54.67;;;25.95;;
25125;SDS011;13106;50.808;5.670;2022-11-20T08:27:52;47.20;;;24.30;;
25125;SDS011;13106;50.808;5.670;2022-11-20T08:30:18;47.28;;;24.17;;
25125;SDS011;13106;50.808;5.670;2022-11-20T08:32:45;47.75;;;24.00;;
25125;SDS011;13106;50.808;5.670;2022-11-20T08:35:11;47.78;;;25.02;;
25125;SDS011;13106;50.808;5.670;2022-11-20T08:37:37;48.15;;;25.95;;
25125;SDS011;13106;50.808;5.670;2022-11-20T08:40:06;48.72;;;28.85;;
25125;SDS011;13106;50.808;5.670;2022-11-20T08:42:32;58.40;;;28.15;;
25125;SDS011;13106;50.808;5.670;2022-11-20T08:44:58;61.78;;;27.70;;
25125;SDS011;13106;50.808;5.670;2022-11-20T08:47:24;54.85;;;30.50;;
25125;SDS011;13106;50.808;5.670;2022-11-20T08:49:50;48.28;;;26.90;;
25125;SDS011;13106;50.808;5.670;2022-11-20T08:52:16;56.80;;;34.53;;
25125;SDS011;13106;50.808;5.670;2022-11-20T08:54:42;59.33;;;39.72;;
25125;SDS011;13106;50.808;5.670;2022-11-20T08:57:08;61.15;;;35.05;;
25125;SDS011;13106;50.808;5.670;2022-11-20T08:59:34;56.85;;;36.80;;
25125;SDS011;13106;50.808;5.670;2022-11-20T09:02:00;49.65;;;30.17;;
25125;SDS011;13106;50.808;5.670;2022-11-20T09:04:26;54.35;;;33.33;;
25125;SDS011;13106;50.808;5.670;2022-11-20T09:06:52;54.65;;;25.10;;
25125;SDS011;13106;50.808;5.670;2022-11-20T09:09:18;59.33;;;27.15;;
25125;SDS011;13106;50.808;5.670;2022-11-20T09:11:44;67.75;;;40.13;;
25125;SDS011;13106;50.808;5.670;2022-11-20T09:14:11;80.50;;;35.65;;
25125;SDS011;13106;50.808;5.670;2022-11-20T09:16:37;64.78;;;40.25;;
25125;SDS011;13106;50.808;5.670;2022-11-20T09:19:03;65.55;;;35.10;;
25125;SDS011;13106;50.808;5.670;2022-11-20T09:21:29;64.75;;;37.60;;
25125;SDS011;13106;50.808;5.670;2022-11-20T09:23:55;65.47;;;40.40;;
25125;SDS011;13106;50.808;5.670;2022-11-20T09:26:21;64.68;;;34.95;;
25125;SDS011;13106;50.808;5.670;2022-11-20T09:28:47;58.53;;;29.42;;
25125;SDS011;13106;50.808;5.670;2022-11-20T09:31:23;60.38;;;35.55;;
25125;SDS011;13106;50.808;5.670;2022-11-20T09:33:50;66.43;;;32.80;;
25125;SDS011;13106;50.808;5.670;2022-11-20T09:36:16;60.30;;;32.70;;
25125;SDS011;13106;50.808;5.670;2022-11-20T09:38:43;61.15;;;32.50;;
25125;SDS011;13106;50.808;5.670;2022-11-20T09:41:16;60.10;;;33.45;;
25125;SDS011;13106;50.808;5.670;2022-11-20T09:43:51;62.83;;;33.17;;
25125;SDS011;13106;50.808;5.670;2022-11-20T09:46:27;64.70;;;34.08;;
25125;SDS011;13106;50.808;5.670;2022-11-20T09:51:42;63.75;;;33.38;;
25125;SDS011;13106;50.808;5.670;2022-11-20T09:54:23;62.00;;;30.23;;
25125;SDS011;13106;50.808;5.670;2022-11-20T09:56:56;54.13;;;23.98;;
25125;SDS011;13106;50.808;5.670;2022-11-20T10:01:53;60.42;;;25.42;;
25125;SDS011;13106;50.808;5.670;2022-11-20T10:04:20;70.10;;;26.67;;
25125;SDS011;13106;50.808;5.670;2022-11-20T10:14:26;54.25;;;26.23;;
25125;SDS011;13106;50.808;5.670;2022-11-20T10:19:42;61.08;;;26.58;;
25125;SDS011;13106;50.808;5.670;2022-11-20T10:25:03;58.30;;;25.75;;
25125;SDS011;13106;50.808;5.670;2022-11-20T10:32:37;56.90;;;29.40;;
25125;SDS011;13106;50.808;5.670;2022-11-20T10:35:14;59.65;;;32.75;;
25125;SDS011;13106;50.808;5.670;2022-11-20T10:37:42;54.78;;;30.23;;
25125;SDS011;13106;50.808;5.670;2022-11-20T10:42:43;63.58;;;34.88;;
25125;SDS011;13106;50.808;5.670;2022-11-20T10:45:13;57.28;;;25.55;;
25125;SDS011;13106;50.808;5.670;2022-11-20T10:47:42;98.78;;;88.53;;
25125;SDS011;13106;50.808;5.670;2022-11-20T10:50:09;66.72;;;24.58;;
25125;SDS011;13106;50.808;5.670;2022-11-20T11:00:22;55.08;;;23.35;;
25125;SDS011;13106;50.808;5.670;2022-11-20T11:02:54;50.10;;;21.83;;
25125;SDS011;13106;50.808;5.670;2022-11-20T11:05:36;52.70;;;22.05;;
25125;SDS011;13106;50.808;5.670;2022-11-20T11:08:03;49.85;;;22.58;;
25125;SDS011;13106;50.808;5.670;2022-11-20T11:10:33;49.38;;;22.30;;
25125;SDS011;13106;50.808;5.670;2022-11-20T11:13:01;44.28;;;20.33;;
25125;SDS011;13106;50.808;5.670;2022-11-20T11:15:29;55.35;;;24.90;;
25125;SDS011;13106;50.808;5.670;2022-11-20T11:17:55;51.75;;;23.20;;
25125;SDS011;13106;50.808;5.670;2022-11-20T11:20:22;46.35;;;25.67;;
25125;SDS011;13106;50.808;5.670;2022-11-20T11:22:51;54.65;;;26.70;;
25125;SDS011;13106;50.808;5.670;2022-11-20T11:25:33;60.97;;;28.38;;
25125;SDS011;13106;50.808;5.670;2022-11-20T11:28:01;54.92;;;27.60;;
25125;SDS011;13106;50.808;5.670;2022-11-20T11:30:28;52.97;;;24.98;;
25125;SDS011;13106;50.808;5.670;2022-11-20T11:33:04;43.33;;;21.65;;
25125;SDS011;13106;50.808;5.670;2022-11-20T11:35:30;47.20;;;21.60;;
25125;SDS011;13106;50.808;5.670;2022-11-20T11:38:04;38.55;;;19.90;;
25125;SDS011;13106;50.808;5.670;2022-11-20T11:40:34;37.83;;;19.63;;
25125;SDS011;13106;50.808;5.670;2022-11-20T11:43:05;42.65;;;20.45;;
25125;SDS011;13106;50.808;5.670;2022-11-20T11:45:52;46.00;;;23.45;;
25125;SDS011;13106;50.808;5.670;2022-11-20T11:48:19;44.38;;;22.65;;
25125;SDS011;13106;50.808;5.670;2022-11-20T11:50:49;45.30;;;22.58;;
25125;SDS011;13106;50.808;5.670;2022-11-20T11:53:17;53.50;;;36.30;;
25125;SDS011;13106;50.808;5.670;2022-11-20T12:00:56;45.28;;;23.20;;
25125;SDS011;13106;50.808;5.670;2022-11-20T12:03:32;45.05;;;34.83;;
25125;SDS011;13106;50.808;5.670;2022-11-20T12:06:01;35.17;;;21.38;;
25125;SDS011;13106;50.808;5.670;2022-11-20T12:08:40;33.33;;;17.25;;
25125;SDS011;13106;50.808;5.670;2022-11-20T12:11:16;26.75;;;13.90;;
25125;SDS011;13106;50.808;5.670;2022-11-20T12:16:18;21.70;;;13.50;;
25125;SDS011;13106;50.808;5.670;2022-11-20T12:18:44;25.35;;;19.33;;
25125;SDS011;13106;50.808;5.670;2022-11-20T12:24:06;18.67;;;12.00;;
25125;SDS011;13106;50.808;5.670;2022-11-20T12:26:45;19.85;;;14.50;;
25125;SDS011;13106;50.808;5.670;2022-11-20T12:39:50;11.18;;;6.45;;
25125;SDS011;13106;50.808;5.670;2022-11-20T12:42:34;6.95;;;3.78;;
25125;SDS011;13106;50.808;5.670;2022-11-20T12:53:40;7.47;;;5.25;;
25125;SDS011;13106;50.808;5.670;2022-11-20T13:01:22;8.18;;;4.68;;
25125;SDS011;13106;50.808;5.670;2022-11-20T13:06:49;6.82;;;4.60;;
25125;SDS011;13106;50.808;5.670;2022-11-20T13:09:17;9.20;;;4.63;;
25125;SDS011;13106;50.808;5.670;2022-11-20T13:16:37;8.30;;;4.07;;
25125;SDS011;13106;50.808;5.670;2022-11-20T13:19:11;8.60;;;4.07;;
25125;SDS011;13106;50.808;5.670;2022-11-20T13:21:38;8.85;;;3.88;;
25125;SDS011;13106;50.808;5.670;2022-11-20T13:26:58;8.18;;;4.70;;
25125;SDS011;13106;50.808;5.670;2022-11-20T13:29:25;9.90;;;8.90;;
25125;SDS011;13106;50.808;5.670;2022-11-20T13:32:00;8.70;;;8.00;;
25125;SDS011;13106;50.808;5.670;2022-11-20T13:34:27;8.80;;;8.10;;
25125;SDS011;13106;50.808;5.670;2022-11-20T13:36:54;9.55;;;8.65;;
25125;SDS011;13106;50.808;5.670;2022-11-20T13:39:24;9.20;;;8.60;;
25125;SDS011;13106;50.808;5.670;2022-11-20T13:41:58;9.57;;;8.63;;
25125;SDS011;13106;50.808;5.670;2022-11-20T13:46:50;8.82;;;8.00;;
25125;SDS011;13106;50.808;5.670;2022-11-20T13:49:18;8.73;;;7.95;;
25125;SDS011;13106;50.808;5.670;2022-11-20T13:51:51;10.60;;;8.32;;
25125;SDS011;13106;50.808;5.670;2022-11-20T14:02:17;5.00;;;4.50;;
25125;SDS011;13106;50.808;5.670;2022-11-20T14:04:48;8.20;;;3.65;;
25125;SDS011;13106;50.808;5.670;2022-11-20T14:07:15;8.90;;;3.63;;
25125;SDS011;13106;50.808;5.670;2022-11-20T14:10:00;4.38;;;2.88;;
25125;SDS011;13106;50.808;5.670;2022-11-20T14:12:30;7.82;;;4.68;;
25125;SDS011;13106;50.808;5.670;2022-11-20T14:17:23;14.48;;;6.40;;
25125;SDS011;13106;50.808;5.670;2022-11-20T14:19:51;11.23;;;8.68;;
25125;SDS011;13106;50.808;5.670;2022-11-20T14:24:43;12.00;;;10.27;;
25125;SDS011;13106;50.808;5.670;2022-11-20T14:27:14;12.60;;;8.07;;
25125;SDS011;13106;50.808;5.670;2022-11-20T14:29:40;7.00;;;4.40;;
25125;SDS011;13106;50.808;5.670;2022-11-20T14:32:08;7.80;;;3.78;;
25125;SDS011;13106;50.808;5.670;2022-11-20T14:34:41;11.63;;;10.63;;
25125;SDS011;13106;50.808;5.670;2022-11-20T14:37:10;10.48;;;9.48;;
25125;SDS011;13106;50.808;5.670;2022-11-20T14:39:40;10.45;;;8.32;;
25125;SDS011;13106;50.808;5.670;2022-11-20T14:42:16;12.55;;;11.38;;
25125;SDS011;13106;50.808;5.670;2022-11-20T14:44:42;13.07;;;11.98;;
25125;SDS011;13106;50.808;5.670;2022-11-20T14:47:10;16.05;;;14.80;;
25125;SDS011;13106;50.808;5.670;2022-11-20T14:49:37;12.57;;;11.48;;
25125;SDS011;13106;50.808;5.670;2022-11-20T14:52:14;20.55;;;18.80;;
25125;SDS011;13106;50.808;5.670;2022-11-20T14:54:58;14.65;;;13.32;;
25125;SDS011;13106;50.808;5.670;2022-11-20T14:57:35;11.25;;;10.15;;
25125;SDS011;13106;50.808;5.670;2022-11-20T15:02:43;9.07;;;6.80;;
25125;SDS011;13106;50.808;5.670;2022-11-20T15:07:37;19.52;;;17.73;;
25125;SDS011;13106;50.808;5.670;2022-11-20T15:12:31;14.13;;;12.85;;
25125;SDS011;13106;50.808;5.670;2022-11-20T15:14:58;10.05;;;8.65;;
25125;SDS011;13106;50.808;5.670;2022-11-20T15:17:24;9.00;;;7.32;;
25125;SDS011;13106;50.808;5.670;2022-11-20T15:19:50;9.73;;;7.15;;
25125;SDS011;13106;50.808;5.670;2022-11-20T15:22:17;13.48;;;12.18;;
25125;SDS011;13106;50.808;5.670;2022-11-20T15:24:43;12.18;;;11.30;;
25125;SDS011;13106;50.808;5.670;2022-11-20T15:27:09;12.52;;;11.50;;
25125;SDS011;13106;50.808;5.670;2022-11-20T15:29:35;19.33;;;17.80;;
25125;SDS011;13106;50.808;5.670;2022-11-20T15:32:01;18.58;;;17.25;;
25125;SDS011;13106;50.808;5.670;2022-11-20T15:34:27;12.35;;;11.35;;
25125;SDS011;13106;50.808;5.670;2022-11-20T15:36:53;18.88;;;17.58;;
25125;SDS011;13106;50.808;5.670;2022-11-20T15:39:19;18.65;;;17.17;;
25125;SDS011;13106;50.808;5.670;2022-11-20T15:41:46;16.13;;;14.90;;
25125;SDS011;13106;50.808;5.670;2022-11-20T15:44:12;14.20;;;13.00;;
25125;SDS011;13106;50.808;5.670;2022-11-20T15:46:39;14.95;;;13.55;;
25125;SDS011;13106;50.808;5.670;2022-11-20T15:49:14;14.55;;;13.55;;
25125;SDS011;13106;50.808;5.670;2022-11-20T15:51:44;13.23;;;12.35;;
25125;SDS011;13106;50.808;5.670;2022-11-20T15:56:42;11.88;;;8.43;;
25125;SDS011;13106;50.808;5.670;2022-11-20T15:59:08;8.90;;;6.32;;
25125;SDS011;13106;50.808;5.670;2022-11-20T16:01:34;10.82;;;8.30;;
25125;SDS011;13106;50.808;5.670;2022-11-20T16:04:01;9.60;;;8.70;;
25125;SDS011;13106;50.808;5.670;2022-11-20T16:06:27;7.72;;;5.40;;
25125;SDS011;13106;50.808;5.670;2022-11-20T16:08:53;5.03;;;3.58;;
25125;SDS011;13106;50.808;5.670;2022-11-20T16:11:19;4.28;;;2.50;;
25125;SDS011;13106;50.808;5.670;2022-11-20T16:13:45;3.83;;;2.08;;
25125;SDS011;13106;50.808;5.670;2022-11-20T16:16:31;3.83;;;2.38;;
25125;SDS011;13106;50.808;5.670;2022-11-20T16:18:57;3.55;;;2.05;;
25125;SDS011;13106;50.808;5.670;2022-11-20T16:21:24;5.85;;;2.20;;
25125;SDS011;13106;50.808;5.670;2022-11-20T16:24:01;4.22;;;1.90;;